Time;durP1;ratioP1;P1;durP2;ratioP2;P2;SDS_P1;SDS_P2;PMS_P1;PMS_P2;Temp;Humidity;BMP_temperature;BMP_pressure;BME280_temperature;BME280_humidity;BME280_pressure;Samples;Min_cycle;Max_cycle;Signal;HPM_P1;HPM_P2
2023/05/08 00:01:30;;;;;;;;;;;;;;;15.38;100.00;-18441.56;5011162;28;20257;-80
2023/05/08 00:03:55;;;;;;;;;;;;;;;15.37;100.00;-18441.16;5006866;28;19967;-82
2023/05/08 00:06:21;;;;;;;;;;;;;;;15.36;100.00;-18441.03;5013326;28;20332;-81
2023/05/08 00:08:46;;;;;;;;;;;;;;;15.33;100.00;-18440.34;4996423;28;20364;-82
2023/05/08 00:11:11;;;;;;;;;;;;;;;15.37;100.00;-18441.31;4996069;28;19956;-82
2023/05/08 00:13:36;;;;;;;;;;;;;;;15.34;100.00;-18440.63;4993352;28;19913;-84
2023/05/08 00:16:02;;;;;;;;;;;;;;;15.38;100.00;-18441.44;4992141;28;20380;-81
2023/05/08 00:18:27;;;;;;;;;;;;;;;15.12;100.00;-18434.72;4999799;28;19921;-83
2023/05/08 00:20:52;;;;;;;;;;;;;;;15.01;100.00;-18431.59;4996215;28;19918;-80
2023/05/08 00:23:17;;;;;;;;;;;;;;;15.19;100.00;-18436.50;4993144;28;19922;-82
2023/05/08 00:25:43;;;;;;;;;;;;;;;15.17;100.00;-18435.84;4992999;28;20444;-85
2023/05/08 00:28:08;;;;;;;;;;;;;;;15.26;100.00;-18438.28;4995433;28;19965;-80
2023/05/08 00:30:33;;;;;;;;;;;;;;;15.21;100.00;-18437.06;5009758;28;19913;-82
2023/05/08 00:32:58;;;;;;;;;;;;;;;14.91;100.00;-18428.84;4994829;28;20000;-80
2023/05/08 00:35:24;;;;;;;;;;;;;;;14.87;100.00;-18427.91;4994936;28;20260;-84
2023/05/08 00:37:49;;;;;;;;;;;;;;;15.02;100.00;-18432.00;5001716;28;19914;-80
2023/05/08 00:40:14;;;;;;;;;;;;;;;14.94;100.00;-18429.81;4995222;28;19917;-81
2023/05/08 00:42:40;;;;;;;;;;;;;;;14.79;100.00;-18425.72;5011331;28;19956;-80
2023/05/08 00:45:05;;;;;;;;;;;;;;;14.75;100.00;-18424.75;4994089;28;19921;-82
2023/05/08 00:47:31;;;;;;;;;;;;;;;14.75;100.00;-18424.59;5013910;28;19918;-80
2023/05/08 00:49:57;;;;;;;;;;;;;;;14.69;100.00;-18422.97;5028611;28;20347;-81
2023/05/08 00:52:22;;;;;;;;;;;;;;;14.64;100.00;-18421.72;5029277;28;19960;-81
2023/05/08 00:54:48;;;;;;;;;;;;;;;14.50;100.00;-18418.03;5013700;28;19913;-83
2023/05/08 00:57:15;;;;;;;;;;;;;;;14.52;100.00;-18418.59;5012774;28;20440;-80
2023/05/08 00:59:42;;;;;;;;;;;;;;;14.68;100.00;-18422.69;4998946;28;19957;-80
2023/05/08 01:02:07;;;;;;;;;;;;;;;14.65;100.00;-18422.16;4993795;28;19942;-80
2023/05/08 01:04:33;;;;;;;;;;;;;;;14.64;100.00;-18421.88;4995079;28;20028;-82
2023/05/08 01:07:00;;;;;;;;;;;;;;;14.63;100.00;-18421.59;5006501;28;19915;-82
2023/05/08 01:09:25;;;;;;;;;;;;;;;14.59;100.00;-18420.38;4993244;28;20078;-81
2023/05/08 01:12:02;;;;;;;;;;;;;;;14.49;100.00;-18417.75;5003491;28;19921;-83
2023/05/08 01:14:44;;;;;;;;;;;;;;;14.65;100.00;-18422.00;5011927;28;19913;-82
2023/05/08 01:17:16;;;;;;;;;;;;;;;14.52;100.00;-18418.44;5007909;28;20003;-81
2023/05/08 01:19:54;;;;;;;;;;;;;;;14.59;100.00;-18420.50;5007936;28;19985;-83
2023/05/08 01:22:42;;;;;;;;;;;;;;;14.54;100.00;-18419.13;4994103;28;19913;-82
2023/05/08 01:25:23;;;;;;;;;;;;;;;14.45;100.00;-18416.66;5009132;28;19914;-82
2023/05/08 01:28:07;;;;;;;;;;;;;;;14.47;100.00;-18417.22;4999837;28;19972;-80
2023/05/08 01:30:51;;;;;;;;;;;;;;;14.51;100.00;-18418.31;4992416;28;19957;-81
2023/05/08 01:33:22;;;;;;;;;;;;;;;14.75;100.00;-18424.59;4998131;28;19921;-81
2023/05/08 01:35:55;;;;;;;;;;;;;;;14.56;100.00;-18419.69;4996205;28;19967;-80
2023/05/08 01:38:30;;;;;;;;;;;;;;;14.54;100.00;-18419.13;5007887;28;20406;-81
2023/05/08 01:41:02;;;;;;;;;;;;;;;14.50;100.00;-18418.03;5012912;28;19929;-83
2023/05/08 01:43:46;;;;;;;;;;;;;;;14.45;100.00;-18416.81;5013776;28;19918;-82
2023/05/08 01:46:18;;;;;;;;;;;;;;;14.33;100.00;-18413.53;5002622;28;19920;-79
2023/05/08 01:48:48;;;;;;;;;;;;;;;14.35;100.00;-18414.06;5009211;28;19972;-81
2023/05/08 01:51:16;;;;;;;;;;;;;;;14.35;100.00;-18413.94;5020090;28;19913;-80
2023/05/08 01:53:43;;;;;;;;;;;;;;;14.38;100.00;-18414.88;5011245;28;19913;-81
2023/05/08 01:56:10;;;;;;;;;;;;;;;14.28;100.00;-18412.00;5006952;28;20488;-79
2023/05/08 01:58:37;;;;;;;;;;;;;;;14.34;100.00;-18413.78;5013294;28;20006;-81
2023/05/08 02:01:02;;;;;;;;;;;;;;;14.29;100.00;-18412.28;5012768;28;19917;-81
2023/05/08 02:03:30;;;;;;;;;;;;;;;14.31;100.00;-18412.97;5014585;28;19913;-81
2023/05/08 02:05:56;;;;;;;;;;;;;;;14.26;100.00;-18411.47;5014850;28;19917;-80
2023/05/08 02:08:23;;;;;;;;;;;;;;;14.22;100.00;-18410.63;5012489;28;19972;-80
2023/05/08 02:10:49;;;;;;;;;;;;;;;14.38;100.00;-18414.75;5014273;28;19964;-80
2023/05/08 02:13:17;;;;;;;;;;;;;;;14.25;100.00;-18411.31;5029742;23;19957;-79
2023/05/08 02:15:47;;;;;;;;;;;;;;;14.08;100.00;-18406.81;5014092;28;20103;-81
2023/05/08 02:18:14;;;;;;;;;;;;;;;14.17;100.00;-18409.28;4992805;28;19976;-81
2023/05/08 02:20:39;;;;;;;;;;;;;;;14.00;100.00;-18404.75;4991740;28;19930;-78
2023/05/08 02:23:05;;;;;;;;;;;;;;;14.02;100.00;-18405.03;4994942;28;19924;-81
2023/05/08 02:25:31;;;;;;;;;;;;;;;14.04;100.00;-18405.72;4988473;28;20336;-80
2023/05/08 02:27:57;;;;;;;;;;;;;;;14.06;100.00;-18406.25;4995111;28;19917;-79
2023/05/08 02:30:24;;;;;;;;;;;;;;;13.95;100.00;-18403.38;4995842;28;19918;-81
2023/05/08 02:32:50;;;;;;;;;;;;;;;13.84;100.00;-18400.22;4990793;28;20025;-81
2023/05/08 02:35:17;;;;;;;;;;;;;;;13.94;100.00;-18403.09;4993493;28;20064;-81
2023/05/08 02:37:44;;;;;;;;;;;;;;;13.89;100.00;-18401.75;4994570;28;20312;-79
2023/05/08 02:40:11;;;;;;;;;;;;;;;14.01;100.00;-18404.88;4988333;28;19932;-81
2023/05/08 02:42:36;;;;;;;;;;;;;;;13.95;100.00;-18403.38;4993777;28;20293;-80
2023/05/08 02:45:02;;;;;;;;;;;;;;;13.95;100.00;-18403.38;4996775;28;19917;-81
2023/05/08 02:47:32;;;;;;;;;;;;;;;13.96;100.00;-18403.53;4995565;28;19925;-80
2023/05/08 02:50:08;;;;;;;;;;;;;;;13.95;100.00;-18403.25;4994462;28;19925;-80
2023/05/08 02:52:59;;;;;;;;;;;;;;;13.97;100.00;-18403.78;4994703;28;19944;-81
2023/05/08 02:55:31;;;;;;;;;;;;;;;14.01;100.00;-18404.88;4996617;28;19930;-80
2023/05/08 02:58:09;;;;;;;;;;;;;;;13.97;100.00;-18403.94;4993132;28;19917;-79
2023/05/08 03:00:39;;;;;;;;;;;;;;;13.69;100.00;-18396.41;4974674;28;20859;-78
2023/05/08 03:03:10;;;;;;;;;;;;;;;13.73;100.00;-18397.50;4994740;28;19960;-79
2023/05/08 03:05:37;;;;;;;;;;;;;;;13.73;100.00;-18397.34;4988297;28;19917;-80
2023/05/08 03:08:05;;;;;;;;;;;;;;;13.81;100.00;-18399.41;4990414;28;19917;-80
2023/05/08 03:10:32;;;;;;;;;;;;;;;13.63;100.00;-18394.75;4986910;28;19945;-80
2023/05/08 03:12:58;;;;;;;;;;;;;;;13.58;100.00;-18393.38;4992313;28;19980;-79
2023/05/08 03:15:30;;;;;;;;;;;;;;;13.65;100.00;-18395.31;4994287;28;20373;-80
2023/05/08 03:17:57;;;;;;;;;;;;;;;13.47;100.00;-18390.38;5000780;28;19918;-80
2023/05/08 03:20:25;;;;;;;;;;;;;;;13.44;100.00;-18389.56;4989572;28;20381;-80
2023/05/08 03:22:52;;;;;;;;;;;;;;;13.46;100.00;-18390.09;4990500;28;19988;-81
2023/05/08 03:25:19;;;;;;;;;;;;;;;13.35;100.00;-18387.22;4992229;28;19918;-80
2023/05/08 03:27:44;;;;;;;;;;;;;;;13.17;100.00;-18382.41;4993067;28;19918;-80
2023/05/08 03:30:10;;;;;;;;;;;;;;;13.26;100.00;-18384.88;4995858;28;19925;-79
2023/05/08 03:32:36;;;;;;;;;;;;;;;13.22;100.00;-18383.66;4993224;28;20008;-79
2023/05/08 03:35:02;;;;;;;;;;;;;;;13.16;100.00;-18382.13;4992061;28;20004;-81
2023/05/08 03:37:27;;;;;;;;;;;;;;;13.15;100.00;-18381.72;4995965;28;19925;-81
2023/05/08 03:39:53;;;;;;;;;;;;;;;13.23;100.00;-18383.91;4997936;28;20404;-80
2023/05/08 03:42:21;;;;;;;;;;;;;;;13.10;100.00;-18380.50;4991960;28;19918;-79
2023/05/08 03:44:49;;;;;;;;;;;;;;;13.12;100.00;-18381.03;4991673;28;20408;-79
2023/05/08 03:47:16;;;;;;;;;;;;;;;13.11;100.00;-18380.78;4997567;28;19917;-79
2023/05/08 03:49:41;;;;;;;;;;;;;;;13.25;100.00;-18384.63;4994915;28;20300;-78
2023/05/08 03:52:07;;;;;;;;;;;;;;;13.13;100.00;-18381.31;4998937;28;19918;-79
2023/05/08 03:54:32;;;;;;;;;;;;;;;13.15;100.00;-18381.88;4996727;28;19928;-80
2023/05/08 03:56:57;;;;;;;;;;;;;;;13.08;100.00;-18379.94;4995852;28;20431;-80
2023/05/08 03:59:27;;;;;;;;;;;;;;;13.02;100.00;-18378.31;4998627;28;20317;-81
2023/05/08 04:01:52;;;;;;;;;;;;;;;13.06;100.00;-18379.41;4995834;28;19921;-81
2023/05/08 04:04:37;;;;;;;;;;;;;;;13.17;100.00;-18382.41;4993591;28;19996;-80
2023/05/08 04:07:07;;;;;;;;;;;;;;;13.24;100.00;-18384.34;4998795;28;19936;-82
2023/05/08 04:09:44;;;;;;;;;;;;;;;13.17;100.00;-18382.41;4998193;28;19921;-81
2023/05/08 04:12:09;;;;;;;;;;;;;;;13.06;100.00;-18379.53;4994174;28;20496;-81
2023/05/08 04:14:41;;;;;;;;;;;;;;;12.86;100.00;-18374.19;4998103;28;19924;-79
2023/05/08 04:17:08;;;;;;;;;;;;;;;12.97;100.00;-18377.06;4992847;28;20519;-82
2023/05/08 04:19:37;;;;;;;;;;;;;;;13.08;100.00;-18379.94;4993192;28;19928;-80
2023/05/08 04:22:07;;;;;;;;;;;;;;;13.00;100.00;-18377.75;4989385;28;20296;-82
2023/05/08 04:24:33;;;;;;;;;;;;;;;13.00;100.00;-18377.75;4993773;28;20348;-81
2023/05/08 04:27:00;;;;;;;;;;;;;;;13.01;100.00;-18378.03;4997050;28;20024;-82
2023/05/08 04:29:25;;;;;;;;;;;;;;;13.05;100.00;-18379.13;4993766;28;19922;-80
2023/05/08 04:31:51;;;;;;;;;;;;;;;13.08;100.00;-18380.09;4991510;28;20032;-82
2023/05/08 04:34:17;;;;;;;;;;;;;;;13.18;100.00;-18382.69;4982438;28;19960;-82
2023/05/08 04:36:42;;;;;;;;;;;;;;;13.37;100.00;-18387.63;4991713;28;19944;-80
2023/05/08 04:39:08;;;;;;;;;;;;;;;13.04;100.00;-18378.84;4993191;28;19922;-82
2023/05/08 04:41:34;;;;;;;;;;;;;;;12.93;100.00;-18375.97;4998714;28;20055;-83
2023/05/08 04:43:59;;;;;;;;;;;;;;;12.96;100.00;-18376.78;4993162;28;19921;-82
2023/05/08 04:46:25;;;;;;;;;;;;;;;12.99;100.00;-18377.63;4993956;28;20391;-81
2023/05/08 04:48:50;;;;;;;;;;;;;;;13.14;100.00;-18381.47;4988517;28;20297;-83
2023/05/08 04:51:15;;;;;;;;;;;;;;;13.07;100.00;-18379.69;5004080;28;20405;-81
2023/05/08 04:53:40;;;;;;;;;;;;;;;13.09;100.00;-18380.22;4993108;28;19925;-81
2023/05/08 04:56:05;;;;;;;;;;;;;;;13.12;100.00;-18380.91;4996704;28;19925;-82
2023/05/08 04:58:31;;;;;;;;;;;;;;;13.23;100.00;-18384.06;4987860;28;19922;-82
2023/05/08 05:00:56;;;;;;;;;;;;;;;13.19;100.00;-18382.97;4990564;28;19925;-82
2023/05/08 05:03:21;;;;;;;;;;;;;;;13.03;100.00;-18378.72;4985359;28;19952;-82
2023/05/08 05:05:46;;;;;;;;;;;;;;;13.00;100.00;-18377.88;4991009;28;19929;-82
2023/05/08 05:08:12;;;;;;;;;;;;;;;13.06;100.00;-18379.53;4983967;28;19928;-82
2023/05/08 05:10:38;;;;;;;;;;;;;;;13.15;100.00;-18381.88;4990705;28;19958;-81
2023/05/08 05:13:03;;;;;;;;;;;;;;;13.31;100.00;-18386.25;4994919;28;20195;-81
2023/05/08 05:15:28;;;;;;;;;;;;;;;13.38;100.00;-18387.91;4991841;28;19925;-82
2023/05/08 05:17:53;;;;;;;;;;;;;;;13.25;100.00;-18384.63;4991251;28;19969;-82
2023/05/08 05:20:18;;;;;;;;;;;;;;;13.19;100.00;-18382.97;4985671;28;19957;-81
2023/05/08 05:22:44;;;;;;;;;;;;;;;13.16;100.00;-18382.13;5001192;28;19917;-83
2023/05/08 05:25:09;;;;;;;;;;;;;;;13.32;100.00;-18386.53;4986727;28;19946;-83
2023/05/08 05:27:37;;;;;;;;;;;;;;;13.47;100.00;-18390.50;4988332;28;19922;-80
2023/05/08 05:30:02;;;;;;;;;;;;;;;13.45;100.00;-18389.81;4991541;28;19921;-81
2023/05/08 05:32:28;;;;;;;;;;;;;;;13.23;100.00;-18383.91;4996840;28;19925;-82
2023/05/08 05:34:54;;;;;;;;;;;;;;;13.27;100.00;-18385.03;4997181;28;19940;-82
2023/05/08 05:37:19;;;;;;;;;;;;;;;13.27;100.00;-18385.03;4997707;28;19932;-83
2023/05/08 05:39:44;;;;;;;;;;;;;;;13.34;100.00;-18386.81;4992753;28;20369;-83
2023/05/08 05:42:10;;;;;;;;;;;;;;;13.36;100.00;-18387.50;4993337;28;19929;-81
2023/05/08 05:44:35;;;;;;;;;;;;;;;13.47;100.00;-18390.50;5005636;28;19925;-81
2023/05/08 05:47:01;;;;;;;;;;;;;;;13.56;100.00;-18392.69;4998873;28;19923;-83
2023/05/08 05:49:26;;;;;;;;;;;;;;;13.49;100.00;-18390.91;4993721;28;19918;-81
2023/05/08 05:51:51;;;;;;;;;;;;;;;13.46;100.00;-18390.22;4993711;28;19929;-82
2023/05/08 05:54:16;;;;;;;;;;;;;;;13.58;100.00;-18393.25;4995631;28;19940;-82
2023/05/08 05:56:42;;;;;;;;;;;;;;;13.65;100.00;-18395.31;4992223;28;20373;-80
2023/05/08 05:59:07;;;;;;;;;;;;;;;13.59;100.00;-18393.66;4997523;28;19922;-83
2023/05/08 06:01:32;;;;;;;;;;;;;;;13.61;100.00;-18394.06;4988982;28;19925;-82
2023/05/08 06:03:58;;;;;;;;;;;;;;;13.69;100.00;-18396.41;4993964;28;19924;-83
2023/05/08 06:06:23;;;;;;;;;;;;;;;13.83;100.00;-18399.97;4991490;28;19917;-80
2023/05/08 06:08:49;;;;;;;;;;;;;;;13.84;100.00;-18400.22;4996269;28;20239;-81
2023/05/08 06:11:14;;;;;;;;;;;;;;;13.84;100.00;-18400.22;4991519;28;19918;-81
2023/05/08 06:13:40;;;;;;;;;;;;;;;13.90;100.00;-18402.00;4992180;28;19960;-82
2023/05/08 06:16:06;;;;;;;;;;;;;;;13.97;100.00;-18403.78;4993293;28;20304;-80
2023/05/08 06:18:31;;;;;;;;;;;;;;;14.00;100.00;-18404.75;4994800;28;20538;-82
2023/05/08 06:20:57;;;;;;;;;;;;;;;14.00;100.00;-18404.63;4990375;28;20056;-82
2023/05/08 06:23:22;;;;;;;;;;;;;;;14.05;100.00;-18405.84;4992246;28;20401;-80
2023/05/08 06:25:48;;;;;;;;;;;;;;;14.10;100.00;-18407.34;4996621;28;20001;-82
2023/05/08 06:28:13;;;;;;;;;;;;;;;14.09;100.00;-18407.06;4989478;28;20369;-81
2023/05/08 06:30:38;;;;;;;;;;;;;;;14.09;100.00;-18406.94;4995265;28;20008;-82
2023/05/08 06:33:04;;;;;;;;;;;;;;;14.12;100.00;-18407.91;5005094;28;19953;-81
2023/05/08 06:35:29;;;;;;;;;;;;;;;14.25;100.00;-18411.19;4990401;28;19957;-82
2023/05/08 06:37:54;;;;;;;;;;;;;;;14.24;100.00;-18411.06;4992412;28;20383;-82
2023/05/08 06:40:19;;;;;;;;;;;;;;;14.33;100.00;-18413.53;4992338;28;19921;-82
2023/05/08 06:42:45;;;;;;;;;;;;;;;14.40;100.00;-18415.28;4992027;28;20071;-82
2023/05/08 06:45:10;;;;;;;;;;;;;;;14.42;100.00;-18415.84;4995929;28;20001;-82
2023/05/08 06:47:36;;;;;;;;;;;;;;;14.49;100.00;-18417.75;4998121;28;19966;-82
2023/05/08 06:50:01;;;;;;;;;;;;;;;14.59;100.00;-18420.50;4993648;28;20107;-83
2023/05/08 06:52:26;;;;;;;;;;;;;;;14.70;100.00;-18423.25;4988096;28;19922;-81
2023/05/08 06:54:51;;;;;;;;;;;;;;;14.76;100.00;-18424.88;5002139;28;19952;-82
2023/05/08 06:57:17;;;;;;;;;;;;;;;14.92;100.00;-18429.13;4991003;28;19918;-81
2023/05/08 06:59:42;;;;;;;;;;;;;;;14.97;100.00;-18430.63;5004277;28;19922;-79
2023/05/08 07:02:08;;;;;;;;;;;;;;;14.90;100.00;-18428.72;4993188;28;20458;-82
2023/05/08 07:04:34;;;;;;;;;;;;;;;14.81;100.00;-18426.25;5001520;28;19917;-82
2023/05/08 07:06:59;;;;;;;;;;;;;;;14.83;100.00;-18426.81;4997674;28;20013;-82
2023/05/08 07:09:24;;;;;;;;;;;;;;;14.94;100.00;-18429.81;5004018;28;19926;-82
2023/05/08 07:11:49;;;;;;;;;;;;;;;15.14;100.00;-18435.16;5009682;28;19917;-82
2023/05/08 07:14:15;;;;;;;;;;;;;;;15.21;100.00;-18437.06;4999521;28;20304;-82
2023/05/08 07:16:40;;;;;;;;;;;;;;;15.33;100.00;-18440.34;4999752;28;19948;-82
2023/05/08 07:19:05;;;;;;;;;;;;;;;15.32;100.00;-18439.94;4998854;28;19931;-82
2023/05/08 07:21:30;;;;;;;;;;;;;;;15.48;100.00;-18444.19;5000947;28;19949;-82
2023/05/08 07:23:56;;;;;;;;;;;;;;;15.59;100.00;-18447.19;5002135;28;19921;-82
2023/05/08 07:26:21;;;;;;;;;;;;;;;15.71;100.00;-18450.34;5000540;28;19984;-82
2023/05/08 07:28:50;;;;;;;;;;;;;;;15.63;100.00;-18448.13;5004062;28;19928;-82
2023/05/08 07:31:15;;;;;;;;;;;;;;;15.67;100.00;-18449.38;5000310;28;19993;-82
2023/05/08 07:33:41;;;;;;;;;;;;;;;15.87;100.00;-18454.72;5003715;28;19945;-82
2023/05/08 07:36:07;;;;;;;;;;;;;;;16.00;100.00;-18458.25;4999412;28;19921;-82
2023/05/08 07:38:33;;;;;;;;;;;;;;;16.01;100.00;-18458.41;4999589;28;19985;-82
2023/05/08 07:41:00;;;;;;;;;;;;;;;16.06;100.00;-18459.63;5001580;28;19929;-82
2023/05/08 07:43:25;;;;;;;;;;;;;;;16.10;100.00;-18460.84;4999001;28;19961;-82
2023/05/08 07:45:51;;;;;;;;;;;;;;;16.11;100.00;-18461.13;5016418;28;19921;-82
2023/05/08 07:48:16;;;;;;;;;;;;;;;16.07;100.00;-18459.91;4997041;28;19929;-82
2023/05/08 07:50:41;;;;;;;;;;;;;;;16.18;100.00;-18463.03;5004582;28;19926;-83
2023/05/08 07:53:06;;;;;;;;;;;;;;;16.29;100.00;-18465.78;4997558;28;20348;-82
2023/05/08 07:55:32;;;;;;;;;;;;;;;16.28;100.00;-18465.50;4999923;28;19906;-82
2023/05/08 07:57:57;;;;;;;;;;;;;;;16.36;100.00;-18467.81;4997200;28;19949;-82
2023/05/08 08:00:23;;;;;;;;;;;;;;;16.59;100.00;-18473.97;5001026;28;19929;-83
2023/05/08 08:02:48;;;;;;;;;;;;;;;16.65;100.00;-18475.47;5000408;28;19921;-82
2023/05/08 08:05:13;;;;;;;;;;;;;;;16.66;100.00;-18475.75;4994956;28;19948;-84
2023/05/08 08:07:38;;;;;;;;;;;;;;;16.72;100.00;-18477.41;4999532;28;19961;-88
2023/05/08 08:10:04;;;;;;;;;;;;;;;16.87;100.00;-18481.50;4991752;28;20348;-82
2023/05/08 08:12:30;;;;;;;;;;;;;;;16.94;100.00;-18483.13;5002193;28;19925;-83
2023/05/08 08:14:56;;;;;;;;;;;;;;;17.10;100.00;-18487.50;5012527;28;20292;-82
2023/05/08 08:17:21;;;;;;;;;;;;;;;17.26;100.00;-18491.88;4995904;28;19918;-86
2023/05/08 08:19:46;;;;;;;;;;;;;;;17.10;100.00;-18487.50;5008231;28;20569;-84
2023/05/08 08:22:11;;;;;;;;;;;;;;;17.13;100.00;-18488.31;4999332;28;19918;-83
2023/05/08 08:24:37;;;;;;;;;;;;;;;17.24;100.00;-18491.31;4997435;28;20380;-83
2023/05/08 08:27:03;;;;;;;;;;;;;;;17.25;100.00;-18491.59;5001897;28;19921;-83
2023/05/08 08:29:28;;;;;;;;;;;;;;;17.47;100.00;-18497.34;4999705;28;19921;-82
2023/05/08 08:31:53;;;;;;;;;;;;;;;17.76;100.00;-18505.25;5017818;28;19918;-86
2023/05/08 08:34:19;;;;;;;;;;;;;;;17.47;100.00;-18497.47;4998959;28;19921;-82
2023/05/08 08:36:44;;;;;;;;;;;;;;;17.54;100.00;-18499.38;5009022;28;20326;-84
2023/05/08 08:39:09;;;;;;;;;;;;;;;17.53;100.00;-18498.97;5013178;28;19926;-84
2023/05/08 08:41:34;;;;;;;;;;;;;;;17.45;100.00;-18496.91;4998604;28;19976;-84
2023/05/08 08:44:00;;;;;;;;;;;;;;;17.63;100.00;-18501.69;4994041;28;20004;-84
2023/05/08 08:46:26;;;;;;;;;;;;;;;17.71;100.00;-18503.75;4992459;28;19921;-86
2023/05/08 08:48:52;;;;;;;;;;;;;;;17.85;100.00;-18507.44;5000550;28;19944;-82
2023/05/08 08:51:23;;;;;;;;;;;;;;;17.90;100.00;-18508.81;4997148;28;19913;-81
2023/05/08 08:53:52;;;;;;;;;;;;;;;17.95;100.00;-18510.31;5004557;28;19972;-87
2023/05/08 08:56:20;;;;;;;;;;;;;;;18.22;100.00;-18517.53;5000946;28;19921;-82
2023/05/08 08:58:49;;;;;;;;;;;;;;;18.37;100.00;-18521.34;4997336;28;19925;-82
2023/05/08 09:01:16;;;;;;;;;;;;;;;18.53;100.00;-18525.72;4995333;28;20329;-84
2023/05/08 09:03:42;;;;;;;;;;;;;;;18.71;100.00;-18530.63;4997296;28;19917;-82
2023/05/08 09:06:07;;;;;;;;;;;;;;;18.72;100.00;-18530.88;4992225;28;20347;-82
2023/05/08 09:08:33;;;;;;;;;;;;;;;19.05;100.00;-18539.50;5000206;28;19928;-85
2023/05/08 09:11:00;;;;;;;;;;;;;;;19.08;100.00;-18540.44;5012718;28;19917;-85
2023/05/08 09:13:25;;;;;;;;;;;;;;;19.26;100.00;-18545.22;5000495;28;19917;-83
2023/05/08 09:15:51;;;;;;;;;;;;;;;19.38;100.00;-18548.34;5005846;28;20274;-86
2023/05/08 09:18:16;;;;;;;;;;;;;;;19.24;100.00;-18544.53;4994567;28;20012;-82
2023/05/08 09:20:42;;;;;;;;;;;;;;;19.27;100.00;-18545.34;4996483;28;20379;-83
2023/05/08 09:23:07;;;;;;;;;;;;;;;19.13;100.00;-18541.81;4995762;28;19924;-83
2023/05/08 09:25:42;;;;;;;;;;;;;;;19.29;100.00;-18545.88;5003024;28;20411;-82
2023/05/08 09:28:18;;;;;;;;;;;;;;;19.36;100.00;-18547.78;4991816;28;19960;-83
2023/05/08 09:30:53;;;;;;;;;;;;;;;19.53;100.00;-18552.44;4997125;28;19969;-85
2023/05/08 09:33:19;;;;;;;;;;;;;;;19.77;100.00;-18558.69;5008488;28;19924;-83
2023/05/08 09:35:47;;;;;;;;;;;;;;;19.91;100.00;-18562.50;5016299;28;20002;-83
2023/05/08 09:38:31;;;;;;;;;;;;;;;19.78;100.00;-18558.97;4992127;28;19921;-85
2023/05/08 09:41:16;;;;;;;;;;;;;;;19.84;100.00;-18560.59;4997156;28;19925;-84
2023/05/08 09:43:42;;;;;;;;;;;;;;;19.95;100.00;-18563.59;4992688;28;20004;-83
2023/05/08 09:46:23;;;;;;;;;;;;;;;20.13;100.00;-18568.22;5002264;28;20394;-86
2023/05/08 09:48:51;;;;;;;;;;;;;;;20.14;100.00;-18568.63;4992292;28;20272;-84
2023/05/08 09:51:17;;;;;;;;;;;;;;;20.03;100.00;-18565.78;4994166;28;19918;-85
2023/05/08 09:53:42;;;;;;;;;;;;;;;19.96;100.00;-18563.88;5013924;28;19980;-86
2023/05/08 09:56:08;;;;;;;;;;;;;;;20.18;100.00;-18569.59;5000927;28;19914;-83
2023/05/08 09:58:40;;;;;;;;;;;;;;;20.28;100.00;-18572.44;5001066;28;19922;-83
2023/05/08 10:01:06;;;;;;;;;;;;;;;20.46;100.00;-18577.22;5006144;28;19976;-83
2023/05/08 10:03:47;;;;;;;;;;;;;;;20.70;100.00;-18583.47;5017756;28;19922;-83
2023/05/08 10:06:13;;;;;;;;;;;;;;;20.84;100.00;-18587.28;4997717;28;19926;-86
2023/05/08 10:08:38;;;;;;;;;;;;;;;20.79;100.00;-18585.91;4997201;28;19928;-86
2023/05/08 10:11:17;;;;;;;;;;;;;;;20.74;100.00;-18584.56;5000903;28;19914;-83
2023/05/08 10:13:42;;;;;;;;;;;;;;;20.85;100.00;-18587.41;4993710;28;19917;-84
2023/05/08 10:16:15;;;;;;;;;;;;;;;21.06;100.00;-18593.00;4997422;28;20467;-85
2023/05/08 10:18:48;;;;;;;;;;;;;;;21.29;100.00;-18599.09;4993868;28;19917;-82
2023/05/08 10:21:14;;;;;;;;;;;;;;;21.31;100.00;-18599.78;5012310;28;19921;-82
2023/05/08 10:23:41;;;;;;;;;;;;;;;21.32;100.00;-18600.06;4996653;28;19992;-83
2023/05/08 10:26:18;;;;;;;;;;;;;;;21.39;100.00;-18601.97;5005821;28;19975;-85
2023/05/08 10:28:48;;;;;;;;;;;;;;;21.36;100.00;-18601.16;4985604;28;19918;-85
2023/05/08 10:31:16;;;;;;;;;;;;;;;21.40;100.00;-18602.09;4995915;28;19936;-82
2023/05/08 10:33:43;;;;;;;;;;;;;;;21.27;100.00;-18598.69;4997339;28;19921;-83
2023/05/08 10:36:09;;;;;;;;;;;;;;;21.51;100.00;-18604.97;5014932;28;19913;-85
2023/05/08 10:38:35;;;;;;;;;;;;;;;21.48;100.00;-18604.16;5012224;28;19926;-85
2023/05/08 10:41:01;;;;;;;;;;;;;;;21.55;100.00;-18606.03;5005896;28;20476;-83
2023/05/08 10:43:27;;;;;;;;;;;;;;;21.53;100.00;-18605.63;4993757;28;19920;-83
2023/05/08 10:45:54;;;;;;;;;;;;;;;21.63;100.00;-18608.34;5002989;28;19920;-86
2023/05/08 10:48:25;;;;;;;;;;;;;;;21.80;100.00;-18612.69;4999398;28;19940;-84
2023/05/08 10:51:14;;;;;;;;;;;;;;;21.90;100.00;-18615.28;5006782;28;19917;-86
2023/05/08 10:53:47;;;;;;;;;;;;;;;21.81;100.00;-18613.13;4995586;28;20033;-85
2023/05/08 10:56:12;;;;;;;;;;;;;;;21.76;100.00;-18611.75;5005034;28;20463;-84
2023/05/08 10:58:39;;;;;;;;;;;;;;;21.98;100.00;-18617.47;5003599;28;19914;-83
2023/05/08 11:01:07;;;;;;;;;;;;;;;21.96;100.00;-18617.06;5008902;28;19917;-87
2023/05/08 11:03:37;;;;;;;;;;;;;;;22.07;100.00;-18620.03;4996442;28;19914;-85
2023/05/08 11:06:02;;;;;;;;;;;;;;;22.03;100.00;-18618.81;5020087;28;19924;-84
2023/05/08 11:08:28;;;;;;;;;;;;;;;21.92;100.00;-18615.97;4996646;28;19914;-84
2023/05/08 11:13:31;;;;;;;;;;;;;;;22.21;100.00;-18623.72;4996272;28;19917;-83
2023/05/08 11:15:56;;;;;;;;;;;;;;;22.29;100.00;-18625.88;4996813;28;20024;-83
2023/05/08 11:18:21;;;;;;;;;;;;;;;22.16;100.00;-18622.34;5000117;28;19956;-83
2023/05/08 11:21:10;;;;;;;;;;;;;;;22.23;100.00;-18624.25;4996918;28;19972;-85
2023/05/08 11:23:35;;;;;;;;;;;;;;;22.35;100.00;-18627.25;4999117;28;19918;-83
2023/05/08 11:26:05;;;;;;;;;;;;;;;22.16;100.00;-18622.34;4996295;28;20336;-85
2023/05/08 11:28:31;;;;;;;;;;;;;;;22.01;100.00;-18618.28;4995916;28;19993;-85
2023/05/08 11:31:01;;;;;;;;;;;;;;;22.12;100.00;-18621.25;5004960;28;19924;-84
2023/05/08 11:33:30;;;;;;;;;;;;;;;22.03;100.00;-18618.81;4996780;28;19914;-83
2023/05/08 11:36:00;;;;;;;;;;;;;;;21.94;100.00;-18616.38;4985437;28;19927;-85
2023/05/08 11:38:25;;;;;;;;;;;;;;;22.07;100.00;-18620.03;5004528;28;19920;-83
2023/05/08 11:41:07;;;;;;;;;;;;;;;22.29;100.00;-18625.88;4996207;28;19918;-83
2023/05/08 11:43:32;;;;;;;;;;;;;;;22.14;100.00;-18621.81;5006611;28;19984;-85
2023/05/08 11:46:03;;;;;;;;;;;;;;;22.19;100.00;-18623.16;5011452;28;19941;-83
2023/05/08 11:48:28;;;;;;;;;;;;;;;22.24;100.00;-18624.38;4996058;28;19931;-83
2023/05/08 11:50:53;;;;;;;;;;;;;;;21.97;100.00;-18617.31;5010881;28;19957;-86
2023/05/08 11:53:18;;;;;;;;;;;;;;;21.91;100.00;-18615.56;4996650;28;19914;-83
2023/05/08 11:55:53;;;;;;;;;;;;;;;21.93;100.00;-18616.25;5016082;28;19920;-86
2023/05/08 11:58:19;;;;;;;;;;;;;;;22.14;100.00;-18621.66;5002816;28;19913;-87
2023/05/08 12:00:45;;;;;;;;;;;;;;;21.92;100.00;-18615.81;5009932;28;19917;-85
2023/05/08 12:03:11;;;;;;;;;;;;;;;21.92;100.00;-18615.97;4993562;28;20345;-85
2023/05/08 12:05:36;;;;;;;;;;;;;;;21.84;100.00;-18613.94;5004941;28;19913;-83
2023/05/08 12:08:03;;;;;;;;;;;;;;;21.70;100.00;-18610.13;4996374;28;20432;-83
2023/05/08 12:10:28;;;;;;;;;;;;;;;21.92;100.00;-18615.81;5002657;28;19917;-85
2023/05/08 12:12:53;;;;;;;;;;;;;;;22.09;100.00;-18620.59;4998410;28;20141;-83
2023/05/08 12:15:18;;;;;;;;;;;;;;;22.25;100.00;-18624.81;4996046;28;19917;-85
2023/05/08 12:17:44;;;;;;;;;;;;;;;22.18;100.00;-18622.75;4997933;28;19936;-86
2023/05/08 12:20:13;;;;;;;;;;;;;;;22.16;100.00;-18622.22;4999965;28;20396;-84
2023/05/08 12:22:40;;;;;;;;;;;;;;;22.16;100.00;-18622.22;4994371;28;20690;-84
2023/05/08 12:25:06;;;;;;;;;;;;;;;22.35;100.00;-18627.25;4996242;28;19914;-84
2023/05/08 12:27:31;;;;;;;;;;;;;;;22.38;100.00;-18628.06;4995317;28;19953;-86
2023/05/08 12:29:56;;;;;;;;;;;;;;;22.53;100.00;-18632.13;5010567;28;19952;-83
2023/05/08 12:32:22;;;;;;;;;;;;;;;22.46;100.00;-18630.22;5003257;28;19914;-84